Time;durP1;ratioP1;P1;durP2;ratioP2;P2;SDS_P1;SDS_P2;PMS_P1;PMS_P2;Temp;Humidity;BMP_temperature;BMP_pressure;BME280_temperature;BME280_humidity;BME280_pressure;Samples;Min_cycle;Max_cycle;Signal;HPM_P1;HPM_P2
2022/11/13 00:00:30;;;;;;;50.60;29.50;;;4.90;99.90;;;;;;2032101;29;20119;-70
2022/11/13 00:01:56;;;;;;;48.97;29.40;;;4.90;99.90;;;;;;2032782;29;20032;-72
2022/11/13 00:03:16;;;;;;;52.90;31.15;;;4.90;99.90;;;;;;2032580;29;20096;-69
2022/11/13 00:04:38;;;;;;;54.88;31.48;;;4.90;99.90;;;;;;2032312;29;20475;-70
2022/11/13 00:06:01;;;;;;;55.20;32.42;;;4.90;99.90;;;;;;2032505;29;20040;-70
2022/11/13 00:07:20;;;;;;;51.95;31.42;;;4.90;99.90;;;;;;2032484;29;20032;-71
2022/11/13 00:08:39;;;;;;;49.92;30.17;;;4.90;99.90;;;;;;2039422;29;20048;-70
2022/11/13 00:09:59;;;;;;;51.55;30.45;;;4.90;99.90;;;;;;2035573;29;20550;-69
2022/11/13 00:11:18;;;;;;;50.78;30.30;;;4.90;99.90;;;;;;2031970;29;20040;-70
2022/11/13 00:12:38;;;;;;;49.50;29.73;;;4.80;99.90;;;;;;2032534;29;20047;-71
2022/11/13 00:13:57;;;;;;;47.28;30.02;;;4.80;99.90;;;;;;2039696;29;20526;-71
2022/11/13 00:15:16;;;;;;;46.20;28.80;;;4.80;99.90;;;;;;2035395;29;20398;-71
2022/11/13 00:16:35;;;;;;;47.17;28.88;;;4.80;99.90;;;;;;2032606;29;20114;-71
2022/11/13 00:17:54;;;;;;;45.13;28.20;;;4.80;99.90;;;;;;2032398;29;20114;-71
2022/11/13 00:19:13;;;;;;;44.17;27.63;;;4.70;99.90;;;;;;2032462;29;20036;-71
2022/11/13 00:20:32;;;;;;;44.33;27.48;;;4.70;99.90;;;;;;2031989;29;20036;-71
2022/11/13 00:21:53;;;;;;;44.80;27.67;;;4.70;99.90;;;;;;2039773;29;20498;-70
2022/11/13 00:23:13;;;;;;;45.08;28.08;;;4.70;99.90;;;;;;2039172;29;20047;-70
2022/11/13 00:24:32;;;;;;;44.65;27.63;;;4.70;99.90;;;;;;2039277;29;20526;-70
2022/11/13 00:25:51;;;;;;;47.22;29.05;;;4.70;99.90;;;;;;2035802;29;20040;-71
2022/11/13 00:27:10;;;;;;;43.17;26.80;;;4.70;99.90;;;;;;2036486;29;20382;-70
2022/11/13 00:28:29;;;;;;;44.45;27.92;;;4.70;99.90;;;;;;2039882;29;20554;-71
2022/11/13 00:29:48;;;;;;;43.53;26.58;;;4.70;99.90;;;;;;2040430;29;20028;-70
2022/11/13 00:31:29;;;;;;;44.45;26.70;;;4.70;99.90;;;;;;2040024;29;20040;-71
2022/11/13 00:32:48;;;;;;;45.45;26.98;;;4.70;99.90;;;;;;2040108;29;20028;-74
2022/11/13 00:34:09;;;;;;;42.75;26.05;;;4.60;99.90;;;;;;2036544;29;20079;-69
2022/11/13 00:35:30;;;;;;;42.97;27.10;;;4.60;99.90;;;;;;2040164;29;20039;-70
2022/11/13 00:36:50;;;;;;;41.53;26.40;;;4.60;99.90;;;;;;2040522;29;20126;-70
2022/11/13 00:38:09;;;;;;;44.33;27.75;;;4.60;99.90;;;;;;2040220;29;20036;-69
2022/11/13 00:39:28;;;;;;;42.08;27.05;;;4.60;99.90;;;;;;2040137;29;20036;-69
2022/11/13 00:40:47;;;;;;;47.10;28.40;;;4.60;99.90;;;;;;2039308;29;20558;-70
2022/11/13 00:42:09;;;;;;;44.75;27.63;;;4.50;99.90;;;;;;2039776;29;20043;-69
2022/11/13 00:43:28;;;;;;;43.58;26.55;;;4.50;99.90;;;;;;2040346;29;20032;-69
2022/11/13 00:44:47;;;;;;;44.28;26.83;;;4.50;99.90;;;;;;2040083;29;20040;-68
2022/11/13 00:46:08;;;;;;;46.70;27.55;;;4.50;99.90;;;;;;2040436;29;20043;-69
2022/11/13 00:47:27;;;;;;;44.70;27.33;;;4.50;99.90;;;;;;2040148;29;20020;-71
2022/11/13 00:48:47;;;;;;;42.35;27.30;;;4.50;99.90;;;;;;2047812;29;20127;-70
2022/11/13 00:50:06;;;;;;;42.75;26.10;;;4.50;99.90;;;;;;2043317;29;20040;-69
2022/11/13 00:51:26;;;;;;;42.88;25.80;;;4.50;99.90;;;;;;2040118;29;20122;-72
2022/11/13 00:52:45;;;;;;;42.33;26.30;;;4.50;99.90;;;;;;2040467;29;20027;-69
2022/11/13 00:54:04;;;;;;;41.13;25.52;;;4.50;99.90;;;;;;2039738;29;20510;-70
2022/11/13 00:55:23;;;;;;;39.72;24.92;;;4.50;99.90;;;;;;2040686;29;20031;-70
2022/11/13 00:56:43;;;;;;;38.47;24.75;;;4.50;99.90;;;;;;2041397;29;20048;-70
2022/11/13 00:58:03;;;;;;;42.53;26.35;;;4.50;99.90;;;;;;2040623;29;20122;-70
2022/11/13 00:59:23;;;;;;;41.40;25.33;;;4.50;99.90;;;;;;2038379;29;20044;-70
2022/11/13 01:00:44;;;;;;;41.58;25.98;;;4.40;99.90;;;;;;2040061;29;20035;-70
2022/11/13 01:02:03;;;;;;;39.63;25.08;;;4.40;99.90;;;;;;2040190;29;20047;-69
2022/11/13 01:03:23;;;;;;;39.40;25.17;;;4.40;99.90;;;;;;2040609;29;20036;-70
2022/11/13 01:04:42;;;;;;;36.90;24.00;;;4.40;99.90;;;;;;2040830;29;20773;-71
2022/11/13 01:06:19;;;;;;;37.30;23.38;;;4.40;99.90;;;;;;2041238;29;20040;-69
2022/11/13 01:07:39;;;;;;;39.97;24.23;;;4.50;99.90;;;;;;2041364;29;20524;-70
2022/11/13 01:08:58;;;;;;;36.63;23.33;;;4.50;99.90;;;;;;2040499;29;20035;-70
2022/11/13 01:10:19;;;;;;;39.13;23.92;;;4.50;99.90;;;;;;2041182;29;20031;-71
2022/11/13 01:11:40;;;;;;;39.95;24.70;;;4.50;99.90;;;;;;2040949;29;20636;-70
2022/11/13 01:12:59;;;;;;;35.85;22.95;;;4.50;99.90;;;;;;2040360;29;20044;-70
2022/11/13 01:14:18;;;;;;;36.42;23.27;;;4.50;99.90;;;;;;2039661;29;20461;-69
2022/11/13 01:15:39;;;;;;;37.72;23.73;;;4.50;99.90;;;;;;2039796;29;20506;-70
2022/11/13 01:16:58;;;;;;;35.42;23.33;;;4.50;99.90;;;;;;2039543;29;20039;-71
2022/11/13 01:18:18;;;;;;;36.53;23.42;;;4.50;99.90;;;;;;2040396;29;20048;-70
2022/11/13 01:19:37;;;;;;;33.67;22.25;;;4.50;99.90;;;;;;2040909;29;20658;-70
2022/11/13 01:21:09;;;;;;;36.33;23.17;;;4.40;99.90;;;;;;2040242;29;20107;-69
2022/11/13 01:22:29;;;;;;;33.97;21.55;;;4.40;99.90;;;;;;2040440;29;20027;-70
2022/11/13 01:23:48;;;;;;;36.70;22.55;;;4.40;99.90;;;;;;2040139;29;20597;-70
2022/11/13 01:25:07;;;;;;;36.25;22.92;;;4.40;99.90;;;;;;2039589;29;20065;-70
2022/11/13 01:26:29;;;;;;;35.92;22.35;;;4.40;99.90;;;;;;2036328;29;20478;-70
2022/11/13 01:27:48;;;;;;;35.97;23.08;;;4.40;99.90;;;;;;2043939;28;20477;-69
2022/11/13 01:29:11;;;;;;;35.55;22.48;;;4.40;99.90;;;;;;2039750;29;20180;-69
2022/11/13 01:30:30;;;;;;;34.00;22.25;;;4.40;99.90;;;;;;2046002;29;20493;-70
2022/11/13 01:31:49;;;;;;;34.20;21.13;;;4.40;99.90;;;;;;2042183;29;20044;-70
2022/11/13 01:33:08;;;;;;;32.40;21.52;;;4.40;99.90;;;;;;2043267;29;20032;-70
2022/11/13 01:34:27;;;;;;;34.53;21.67;;;4.30;99.90;;;;;;2039629;29;20110;-70
2022/11/13 01:35:49;;;;;;;33.30;21.20;;;4.30;99.90;;;;;;2039718;29;20490;-69
2022/11/13 01:37:08;;;;;;;36.72;22.65;;;4.30;99.90;;;;;;2039705;29;20024;-69
2022/11/13 01:38:28;;;;;;;36.75;23.25;;;4.30;99.90;;;;;;2039622;29;20043;-69
2022/11/13 01:39:47;;;;;;;32.92;22.05;;;4.20;99.90;;;;;;2039186;29;20110;-69
2022/11/13 01:41:08;;;;;;;38.30;24.00;;;4.20;99.90;;;;;;2039059;29;20044;-69
2022/11/13 01:42:28;;;;;;;35.70;22.80;;;4.20;99.90;;;;;;2038882;29;20035;-69
2022/11/13 01:43:47;;;;;;;37.38;22.77;;;4.20;99.90;;;;;;2039525;29;20047;-70
2022/11/13 01:45:44;;;;;;;38.17;23.30;;;4.10;99.90;;;;;;2039074;29;20119;-69
2022/11/13 01:47:03;;;;;;;41.22;24.58;;;4.20;99.90;;;;;;2039740;29;20126;-69
2022/11/13 01:48:38;;;;;;;39.05;23.30;;;4.10;99.90;;;;;;2039611;29;20107;-69
2022/11/13 01:50:01;;;;;;;39.65;24.23;;;4.20;99.90;;;;;;2039468;29;20048;-69
2022/11/13 01:51:41;;;;;;;36.33;23.40;;;4.20;99.90;;;;;;2039339;29;20031;-70
2022/11/13 01:53:00;;;;;;;35.80;22.38;;;4.20;99.90;;;;;;2039955;29;20486;-69
2022/11/13 01:54:25;;;;;;;35.45;22.05;;;4.20;99.90;;;;;;2039681;29;20496;-71
2022/11/13 01:55:45;;;;;;;37.00;22.33;;;4.20;99.90;;;;;;2040106;29;20048;-70
2022/11/13 01:57:05;;;;;;;35.90;22.08;;;4.10;99.90;;;;;;2039853;29;20039;-69
2022/11/13 01:58:24;;;;;;;36.40;23.02;;;4.10;99.90;;;;;;2040213;29;20118;-69
2022/11/13 01:59:59;;;;;;;34.60;22.08;;;4.10;99.90;;;;;;2040408;29;20027;-69
2022/11/13 02:01:18;;;;;;;35.78;21.45;;;4.10;99.90;;;;;;2040198;29;20066;-69
2022/11/13 02:02:40;;;;;;;33.28;20.67;;;4.10;99.90;;;;;;2041769;29;20039;-69
2022/11/13 02:04:00;;;;;;;32.28;20.10;;;4.10;99.90;;;;;;2040341;29;20055;-69
2022/11/13 02:05:19;;;;;;;31.77;19.95;;;4.10;99.90;;;;;;2039954;29;20043;-70
2022/11/13 02:06:54;;;;;;;29.50;19.08;;;4.10;99.90;;;;;;2039829;29;20039;-71
2022/11/13 02:08:13;;;;;;;30.73;19.67;;;4.20;99.90;;;;;;2039869;29;20409;-70
2022/11/13 02:09:41;;;;;;;33.22;20.13;;;4.20;99.90;;;;;;2039683;29;20043;-70
2022/11/13 02:11:01;;;;;;;30.88;19.30;;;4.20;99.90;;;;;;2039476;29;20035;-70
2022/11/13 02:12:35;;;;;;;28.77;18.20;;;4.10;99.90;;;;;;2040002;29;20043;-69
2022/11/13 02:13:54;;;;;;;29.58;18.58;;;4.10;99.90;;;;;;2039609;29;20043;-69
2022/11/13 02:15:15;;;;;;;28.48;17.95;;;4.10;99.90;;;;;;2039725;29;20043;-69
2022/11/13 02:16:37;;;;;;;31.58;18.80;;;4.00;99.90;;;;;;2040853;29;20043;-70
2022/11/13 02:17:57;;;;;;;28.80;17.98;;;4.00;99.90;;;;;;2041162;29;20044;-70
2022/11/13 02:19:31;;;;;;;29.15;18.00;;;4.00;99.90;;;;;;2041163;29;20048;-70
2022/11/13 02:21:05;;;;;;;26.27;17.40;;;4.00;99.90;;;;;;2041011;29;20118;-70
2022/11/13 02:22:49;;;;;;;27.50;17.55;;;4.00;99.90;;;;;;2040582;29;20052;-71
2022/11/13 02:24:23;;;;;;;27.23;17.48;;;3.90;99.90;;;;;;2041203;29;20039;-69
2022/11/13 02:25:49;;;;;;;29.77;18.73;;;3.90;99.90;;;;;;2041176;29;20446;-70
2022/11/13 02:27:26;;;;;;;27.73;18.10;;;3.90;99.90;;;;;;2041210;29;20043;-70
2022/11/13 02:28:45;;;;;;;28.10;18.00;;;3.80;99.90;;;;;;2040943;29;20039;-69
2022/11/13 02:30:22;;;;;;;30.92;18.77;;;3.80;99.90;;;;;;2041172;29;20036;-70
2022/11/13 02:31:41;;;;;;;28.00;17.92;;;3.80;99.90;;;;;;2041193;29;20044;-70
2022/11/13 02:33:01;;;;;;;27.70;17.85;;;3.70;99.90;;;;;;2041194;29;20067;-70
2022/11/13 02:34:20;;;;;;;29.15;18.55;;;3.70;99.90;;;;;;2041244;29;20430;-69
2022/11/13 02:35:39;;;;;;;31.40;19.48;;;3.70;99.90;;;;;;2041174;29;20490;-69
2022/11/13 02:36:58;;;;;;;30.23;19.23;;;3.70;99.90;;;;;;2041171;29;20107;-69
2022/11/13 02:38:17;;;;;;;28.20;17.83;;;3.70;99.90;;;;;;2040826;29;20039;-69
2022/11/13 02:39:37;;;;;;;25.38;17.00;;;3.60;99.90;;;;;;2041176;29;20308;-69
2022/11/13 02:40:56;;;;;;;25.08;16.55;;;3.60;99.90;;;;;;2040820;29;20040;-69
2022/11/13 02:42:15;;;;;;;28.38;17.77;;;3.60;99.90;;;;;;2040386;29;20039;-70
2022/11/13 02:43:34;;;;;;;28.92;18.10;;;3.60;99.90;;;;;;2040656;29;20043;-70
2022/11/13 02:44:53;;;;;;;26.52;17.27;;;3.60;99.90;;;;;;2040816;29;20467;-70
2022/11/13 02:46:13;;;;;;;27.67;17.60;;;3.60;99.90;;;;;;2040988;29;20477;-70
2022/11/13 02:47:32;;;;;;;28.00;17.23;;;3.50;99.90;;;;;;2041081;29;20039;-70
2022/11/13 02:48:51;;;;;;;26.23;16.42;;;3.50;99.90;;;;;;2040865;29;20040;-70
2022/11/13 02:50:11;;;;;;;25.65;16.98;;;3.50;99.90;;;;;;2041039;29;20110;-70
2022/11/13 02:51:30;;;;;;;27.05;17.30;;;3.50;99.90;;;;;;2040916;29;20043;-70
2022/11/13 02:52:50;;;;;;;25.67;17.05;;;3.50;99.90;;;;;;2041054;29;20768;-70
2022/11/13 02:54:09;;;;;;;26.10;17.30;;;3.40;99.90;;;;;;2040999;29;20040;-68
2022/11/13 02:55:28;;;;;;;26.45;16.83;;;3.40;99.90;;;;;;2041079;29;20134;-69
2022/11/13 02:56:48;;;;;;;28.02;18.20;;;3.40;99.90;;;;;;2040742;29;20040;-69
2022/11/13 02:58:07;;;;;;;27.88;17.58;;;3.40;99.90;;;;;;2040886;29;20126;-71
2022/11/13 02:59:26;;;;;;;26.25;17.08;;;3.40;99.90;;;;;;2040779;29;20044;-69
2022/11/13 03:00:45;;;;;;;27.42;17.27;;;3.30;99.90;;;;;;2040561;29;20466;-70
2022/11/13 03:02:05;;;;;;;28.40;17.08;;;3.30;99.90;;;;;;2041026;29;20482;-69
2022/11/13 03:03:24;;;;;;;28.63;17.77;;;3.30;99.90;;;;;;2040782;29;20039;-70
2022/11/13 03:04:43;;;;;;;29.02;17.30;;;3.30;99.90;;;;;;2040927;29;20035;-70
2022/11/13 03:06:03;;;;;;;27.95;17.00;;;3.30;99.90;;;;;;2040222;29;20127;-70
2022/11/13 03:07:22;;;;;;;30.10;18.30;;;3.20;99.90;;;;;;2040524;29;20541;-70
2022/11/13 03:08:41;;;;;;;31.33;18.20;;;3.20;99.90;;;;;;2040721;29;20048;-69
2022/11/13 03:10:00;;;;;;;26.40;17.15;;;3.20;99.90;;;;;;2040851;29;20462;-69
2022/11/13 03:11:20;;;;;;;29.27;17.65;;;3.20;99.90;;;;;;2040505;29;20685;-70
2022/11/13 03:12:39;;;;;;;30.52;18.42;;;3.20;99.90;;;;;;2040824;29;20106;-71
2022/11/13 03:13:59;;;;;;;28.20;17.88;;;3.20;99.90;;;;;;2040478;29;20075;-70
2022/11/13 03:15:18;;;;;;;31.45;18.90;;;3.20;99.90;;;;;;2041131;29;20431;-69
2022/11/13 03:16:37;;;;;;;29.88;18.38;;;3.20;99.90;;;;;;2040544;29;20513;-70
2022/11/13 03:18:00;;;;;;;31.45;18.73;;;3.10;99.90;;;;;;2040980;29;20110;-70
2022/11/13 03:19:20;;;;;;;32.95;18.73;;;3.10;99.90;;;;;;2040852;29;20043;-71
2022/11/13 03:20:41;;;;;;;35.05;19.73;;;3.10;99.90;;;;;;2040539;29;20035;-70
2022/11/13 03:22:01;;;;;;;49.38;23.75;;;3.10;99.90;;;;;;2041002;29;20123;-70
2022/11/13 03:23:20;;;;;;;48.92;23.63;;;3.10;99.90;;;;;;2041150;29;20020;-70
2022/11/13 03:24:39;;;;;;;42.70;22.20;;;3.00;99.90;;;;;;2040602;29;20071;-72
2022/11/13 03:26:04;;;;;;;41.90;21.92;;;3.00;99.90;;;;;;2040954;29;20060;-70
2022/11/13 03:27:23;;;;;;;41.72;21.73;;;3.00;99.90;;;;;;2040767;29;20047;-70
2022/11/13 03:28:42;;;;;;;39.53;20.85;;;3.00;99.90;;;;;;2041167;29;20031;-70
2022/11/13 03:30:01;;;;;;;36.95;20.60;;;3.00;99.90;;;;;;2041510;29;20557;-70
2022/11/13 03:31:21;;;;;;;37.55;20.05;;;3.00;99.90;;;;;;2041201;29;20036;-70
2022/11/13 03:32:40;;;;;;;33.05;19.80;;;3.00;99.90;;;;;;2041441;29;20039;-69
2022/11/13 03:33:59;;;;;;;32.55;19.13;;;3.00;99.90;;;;;;2041117;29;20036;-70
2022/11/13 03:35:18;;;;;;;30.38;19.30;;;3.00;99.90;;;;;;2040652;29;20040;-70
2022/11/13 03:36:37;;;;;;;30.52;18.75;;;3.00;99.90;;;;;;2040636;29;20039;-70
2022/11/13 03:37:56;;;;;;;29.75;18.13;;;3.00;99.90;;;;;;2040665;29;20429;-70
2022/11/13 03:39:15;;;;;;;30.27;18.83;;;3.00;99.90;;;;;;2040726;29;20039;-70
2022/11/13 03:40:35;;;;;;;28.20;18.00;;;3.00;99.90;;;;;;2040531;29;20043;-70
2022/11/13 03:41:54;;;;;;;28.90;18.65;;;3.00;99.90;;;;;;2040566;29;20043;-70
2022/11/13 03:43:13;;;;;;;30.30;18.83;;;2.90;99.90;;;;;;2040585;29;20063;-70
2022/11/13 03:44:32;;;;;;;30.63;19.05;;;2.90;99.90;;;;;;2040390;29;20036;-70
2022/11/13 03:45:51;;;;;;;28.42;18.70;;;2.90;99.90;;;;;;2040509;29;20043;-70
2022/11/13 03:47:10;;;;;;;27.77;17.77;;;2.90;99.90;;;;;;2040407;29;20040;-70
2022/11/13 03:48:29;;;;;;;28.60;17.98;;;2.80;99.90;;;;;;2040535;29;20655;-70
2022/11/13 03:49:48;;;;;;;28.92;18.25;;;2.80;99.90;;;;;;2040449;29;20040;-69
2022/11/13 03:51:07;;;;;;;27.95;17.83;;;2.80;99.90;;;;;;2040239;29;20498;-70
2022/11/13 03:52:26;;;;;;;27.90;18.83;;;2.80;99.90;;;;;;2040611;29;20062;-69
2022/11/13 03:53:45;;;;;;;30.88;18.75;;;2.80;99.90;;;;;;2040358;29;20047;-70
2022/11/13 03:55:04;;;;;;;28.08;18.15;;;2.80;99.90;;;;;;2040569;29;20035;-70
2022/11/13 03:56:23;;;;;;;26.48;18.27;;;2.80;99.90;;;;;;2040533;29;20048;-71
2022/11/13 03:57:42;;;;;;;29.80;18.23;;;2.80;99.90;;;;;;2040462;29;20032;-70
2022/11/13 03:59:02;;;;;;;29.65;18.83;;;2.70;99.90;;;;;;2040447;29;20482;-70
2022/11/13 04:00:21;;;;;;;29.80;19.75;;;2.70;99.90;;;;;;2040528;29;20553;-70
2022/11/13 04:01:40;;;;;;;28.88;18.85;;;2.70;99.90;;;;;;2040285;29;20040;-70
2022/11/13 04:02:59;;;;;;;29.63;18.70;;;2.70;99.90;;;;;;2040693;29;20035;-70
2022/11/13 04:04:18;;;;;;;29.38;19.00;;;2.70;99.90;;;;;;2040324;29;20446;-70
2022/11/13 04:05:38;;;;;;;29.75;19.80;;;2.70;99.90;;;;;;2040355;29;20036;-70
2022/11/13 04:06:58;;;;;;;30.48;19.98;;;2.70;99.90;;;;;;2049845;29;20039;-70
2022/11/13 04:08:17;;;;;;;30.67;19.55;;;2.60;99.90;;;;;;2046176;28;20035;-70
2022/11/13 04:09:37;;;;;;;28.33;17.90;;;2.60;99.90;;;;;;2042541;29;20063;-70
2022/11/13 04:11:08;;;;;;;29.25;18.35;;;2.60;99.90;;;;;;2045662;29;20032;-70
2022/11/13 04:12:27;;;;;;;30.35;19.13;;;2.60;99.90;;;;;;2040958;29;20110;-70
2022/11/13 04:13:46;;;;;;;29.90;18.88;;;2.60;99.90;;;;;;2040492;29;20036;-70
2022/11/13 04:15:06;;;;;;;26.83;18.05;;;2.60;99.90;;;;;;2040450;29;20040;-70
2022/11/13 04:16:25;;;;;;;30.67;18.55;;;2.60;99.90;;;;;;2040355;29;20036;-70
2022/11/13 04:17:44;;;;;;;29.95;18.60;;;2.50;99.90;;;;;;2040253;29;20039;-70
2022/11/13 04:19:03;;;;;;;30.88;19.27;;;2.50;99.90;;;;;;2040046;29;20035;-70
2022/11/13 04:20:24;;;;;;;27.77;18.38;;;2.50;99.90;;;;;;2040295;29;20051;-70
2022/11/13 04:21:43;;;;;;;28.20;19.10;;;2.50;99.90;;;;;;2040212;29;20098;-71
2022/11/13 04:23:06;;;;;;;29.58;18.77;;;2.50;99.90;;;;;;2040276;29;20027;-70
2022/11/13 04:24:26;;;;;;;27.67;18.45;;;2.50;99.90;;;;;;2040276;29;20043;-70
2022/11/13 04:25:47;;;;;;;29.65;18.48;;;2.40;99.90;;;;;;2040218;29;20028;-70
2022/11/13 04:27:06;;;;;;;27.63;18.35;;;2.40;99.90;;;;;;2040232;29;20503;-70
2022/11/13 04:28:25;;;;;;;29.00;18.73;;;2.40;99.90;;;;;;2040261;29;20027;-70
2022/11/13 04:29:44;;;;;;;26.90;17.98;;;2.40;99.90;;;;;;2040239;29;20040;-71
2022/11/13 04:31:04;;;;;;;29.27;18.63;;;2.40;99.90;;;;;;2040113;29;20517;-71
2022/11/13 04:32:23;;;;;;;28.45;18.27;;;2.40;99.90;;;;;;2040282;29;20036;-70
2022/11/13 04:33:42;;;;;;;28.35;18.55;;;2.30;99.90;;;;;;2039536;29;20110;-70
2022/11/13 04:35:05;;;;;;;27.65;18.30;;;2.30;99.90;;;;;;2040090;29;20044;-70
2022/11/13 04:36:24;;;;;;;27.00;17.98;;;2.30;99.90;;;;;;2040430;29;20553;-70
2022/11/13 04:37:43;;;;;;;30.48;20.08;;;2.30;99.90;;;;;;2040400;29;20043;-69
2022/11/13 04:39:02;;;;;;;29.88;19.17;;;2.30;99.90;;;;;;2039442;29;20533;-69
2022/11/13 04:40:21;;;;;;;31.65;19.30;;;2.30;99.90;;;;;;2040031;29;20463;-69
2022/11/13 04:43:19;;;;;;;27.17;18.63;;;2.20;99.90;;;;;;2040196;29;20048;-69
2022/11/13 04:44:38;;;;;;;28.20;18.67;;;2.30;99.90;;;;;;2040456;29;20040;-69
2022/11/13 04:45:57;;;;;;;29.63;19.00;;;2.20;99.90;;;;;;2040338;29;20040;-69
2022/11/13 04:47:16;;;;;;;28.73;18.90;;;2.20;99.90;;;;;;2039711;29;20585;-68
2022/11/13 04:48:36;;;;;;;28.92;18.52;;;2.20;99.90;;;;;;2040161;29;20119;-70
2022/11/13 04:49:55;;;;;;;27.10;17.58;;;2.10;99.90;;;;;;2040328;29;20035;-71
2022/11/13 04:51:14;;;;;;;30.60;18.80;;;2.10;99.90;;;;;;2039830;29;20043;-70
2022/11/13 04:52:32;;;;;;;27.35;18.10;;;2.10;99.90;;;;;;2039525;29;20739;-70
2022/11/13 04:53:52;;;;;;;28.10;18.52;;;2.10;99.90;;;;;;2039946;29;20031;-70
2022/11/13 04:55:12;;;;;;;28.60;19.13;;;2.10;99.90;;;;;;2040132;29;20048;-70
2022/11/13 04:56:31;;;;;;;29.63;18.10;;;2.10;99.90;;;;;;2040175;29;20040;-70
2022/11/13 04:57:54;;;;;;;29.30;18.60;;;2.10;99.90;;;;;;2039914;29;20040;-70
2022/11/13 04:59:15;;;;;;;28.70;18.40;;;2.10;99.90;;;;;;2040109;29;20569;-70
2022/11/13 05:00:35;;;;;;;30.60;19.10;;;2.00;99.90;;;;;;2039770;29;20043;-70
2022/11/13 05:01:54;;;;;;;28.80;18.52;;;2.00;99.90;;;;;;2040056;29;20058;-70
2022/11/13 05:03:13;;;;;;;30.60;18.52;;;2.00;99.90;;;;;;2040063;29;20043;-69
2022/11/13 05:04:32;;;;;;;31.73;19.27;;;2.00;99.90;;;;;;2039978;29;20035;-69
2022/11/13 05:05:51;;;;;;;27.55;18.17;;;2.00;99.90;;;;;;2039933;29;20127;-69
2022/11/13 05:07:11;;;;;;;28.58;18.40;;;2.00;99.90;;;;;;2039861;29;20414;-70
2022/11/13 05:08:30;;;;;;;28.45;18.75;;;2.00;99.90;;;;;;2039845;29;20040;-70
2022/11/13 05:09:49;;;;;;;28.17;18.13;;;2.00;99.90;;;;;;2039964;29;20028;-70
2022/11/13 05:11:08;;;;;;;30.10;18.55;;;2.00;99.90;;;;;;2039603;29;20130;-70
2022/11/13 05:12:27;;;;;;;28.85;18.73;;;2.00;99.90;;;;;;2039776;29;20036;-70
2022/11/13 05:13:46;;;;;;;30.27;18.95;;;2.00;99.90;;;;;;2039791;29;20043;-70
2022/11/13 05:15:06;;;;;;;29.88;18.73;;;2.00;99.90;;;;;;2039975;29;20028;-70
2022/11/13 05:16:26;;;;;;;30.13;19.50;;;1.90;99.90;;;;;;2039454;29;20043;-69
2022/11/13 05:17:48;;;;;;;28.67;18.73;;;1.90;99.90;;;;;;2039619;29;20039;-69
2022/11/13 05:19:08;;;;;;;30.35;19.35;;;2.00;99.90;;;;;;2039878;29;20039;-70
2022/11/13 05:20:27;;;;;;;32.38;19.90;;;2.00;99.90;;;;;;2039975;29;20039;-70
2022/11/13 05:21:46;;;;;;;30.10;18.52;;;2.10;99.90;;;;;;2039788;29;20043;-70
2022/11/13 05:23:05;;;;;;;28.92;18.38;;;2.10;99.90;;;;;;2040157;29;20032;-69
2022/11/13 05:24:27;;;;;;;27.63;17.40;;;2.10;99.90;;;;;;2039081;29;20538;-69
2022/11/13 05:25:46;;;;;;;27.55;18.00;;;2.10;99.90;;;;;;2036370;29;20043;-70
2022/11/13 05:27:06;;;;;;;27.85;17.92;;;2.10;99.90;;;;;;2039533;29;20040;-70
2022/11/13 05:28:25;;;;;;;30.08;18.25;;;2.10;99.90;;;;;;2039612;29;20043;-69
2022/11/13 05:29:44;;;;;;;26.88;17.73;;;2.10;99.90;;;;;;2039820;29;20490;-70
2022/11/13 05:31:08;;;;;;;27.48;17.70;;;2.10;99.90;;;;;;2038894;29;20051;-70
2022/11/13 05:32:27;;;;;;;28.23;18.13;;;2.10;99.90;;;;;;2044429;29;20032;-70
2022/11/13 05:33:48;;;;;;;27.35;17.55;;;2.20;99.90;;;;;;2042517;29;20118;-70
2022/11/13 05:35:07;;;;;;;25.58;16.90;;;2.10;99.90;;;;;;2039940;29;20051;-70
2022/11/13 05:36:27;;;;;;;29.50;18.33;;;2.10;99.90;;;;;;2039878;29;20043;-70
2022/11/13 05:37:46;;;;;;;29.77;18.55;;;2.10;99.90;;;;;;2039173;29;20035;-71
2022/11/13 05:39:06;;;;;;;28.88;19.10;;;2.10;99.90;;;;;;2039440;29;20051;-71
2022/11/13 05:40:25;;;;;;;29.05;18.35;;;2.10;99.90;;;;;;2039482;29;20039;-70
2022/11/13 05:41:44;;;;;;;32.58;19.00;;;2.00;99.90;;;;;;2039659;29;20076;-70
2022/11/13 05:43:03;;;;;;;30.83;19.13;;;2.00;99.90;;;;;;2039717;29;20063;-70
2022/11/13 05:44:22;;;;;;;36.08;21.60;;;2.00;99.90;;;;;;2039683;29;20051;-70
2022/11/13 05:45:41;;;;;;;37.97;21.58;;;2.00;99.90;;;;;;2039602;29;20490;-70
2022/11/13 05:47:00;;;;;;;37.90;21.80;;;2.10;99.90;;;;;;2039630;29;20043;-71
2022/11/13 05:48:20;;;;;;;38.53;21.52;;;2.10;99.90;;;;;;2039534;29;20024;-70
2022/11/13 05:49:39;;;;;;;36.70;20.85;;;2.00;99.90;;;;;;2039698;29;20047;-69
2022/11/13 05:51:05;;;;;;;35.38;20.52;;;2.10;99.90;;;;;;2038792;29;20028;-70
2022/11/13 05:52:24;;;;;;;36.75;20.88;;;2.10;99.90;;;;;;2039661;29;20486;-69
2022/11/13 05:53:44;;;;;;;33.60;20.48;;;2.10;99.90;;;;;;2039821;29;20027;-70
2022/11/13 05:55:04;;;;;;;35.05;20.92;;;2.20;99.90;;;;;;2039613;29;20047;-69
2022/11/13 05:56:29;;;;;;;30.42;18.35;;;2.20;99.90;;;;;;2039849;29;20032;-69
2022/11/13 05:57:49;;;;;;;31.08;18.33;;;2.20;99.90;;;;;;2039548;29;20039;-70
2022/11/13 05:59:08;;;;;;;28.35;17.88;;;2.10;99.90;;;;;;2039658;29;20502;-70
2022/11/13 06:00:27;;;;;;;28.17;17.73;;;2.10;99.90;;;;;;2039722;29;20035;-70
2022/11/13 06:01:46;;;;;;;27.83;17.13;;;2.10;99.90;;;;;;2039488;29;20048;-69
2022/11/13 06:03:05;;;;;;;26.55;16.27;;;2.10;99.90;;;;;;2039537;29;20736;-70
2022/11/13 06:04:24;;;;;;;26.42;16.60;;;2.10;99.90;;;;;;2038798;29;20182;-70
2022/11/13 06:05:46;;;;;;;26.33;16.75;;;2.10;99.90;;;;;;2039147;29;20496;-70
2022/11/13 06:07:05;;;;;;;27.00;16.20;;;2.00;99.90;;;;;;2038790;29;20522;-70
2022/11/13 06:08:25;;;;;;;26.45;16.58;;;2.00;99.90;;;;;;2039345;29;20039;-70
2022/11/13 06:09:44;;;;;;;25.70;16.35;;;2.00;99.90;;;;;;2039035;29;20462;-70
2022/11/13 06:11:07;;;;;;;25.10;16.70;;;2.00;99.90;;;;;;2039179;29;20059;-70
2022/11/13 06:12:28;;;;;;;25.23;16.17;;;1.90;99.90;;;;;;2039646;29;20043;-70
2022/11/13 06:13:50;;;;;;;25.50;16.23;;;1.90;99.90;;;;;;2039159;29;20518;-70
2022/11/13 06:15:09;;;;;;;25.73;16.52;;;1.90;99.90;;;;;;2039264;29;20510;-69
2022/11/13 06:16:33;;;;;;;27.25;17.90;;;1.90;99.90;;;;;;2046919;29;20867;-69
2022/11/13 06:17:52;;;;;;;27.35;17.10;;;1.90;99.90;;;;;;2041809;29;20430;-69
2022/11/13 06:19:11;;;;;;;28.77;17.02;;;1.90;99.90;;;;;;2039432;29;20035;-69
2022/11/13 06:20:34;;;;;;;26.33;16.90;;;1.90;99.90;;;;;;2039191;29;20040;-69
2022/11/13 06:21:53;;;;;;;28.52;17.25;;;1.90;99.90;;;;;;2038954;29;20036;-70
2022/11/13 06:23:12;;;;;;;27.40;16.63;;;1.90;99.90;;;;;;2039308;29;20051;-68
2022/11/13 06:24:31;;;;;;;27.58;17.45;;;1.90;99.90;;;;;;2038839;29;20040;-68
2022/11/13 06:25:51;;;;;;;28.48;16.65;;;1.90;99.90;;;;;;2039388;29;20043;-68
2022/11/13 06:27:10;;;;;;;27.05;16.65;;;1.80;99.90;;;;;;2039737;29;20036;-71
2022/11/13 06:28:31;;;;;;;25.15;16.20;;;1.80;99.90;;;;;;2039876;29;20036;-69
2022/11/13 06:29:50;;;;;;;27.75;16.63;;;1.80;99.90;;;;;;2040032;29;20027;-71
2022/11/13 06:31:18;;;;;;;26.55;16.65;;;1.80;99.90;;;;;;2039502;29;20051;-71
2022/11/13 06:32:37;;;;;;;23.88;16.00;;;1.90;99.90;;;;;;2039971;29;20032;-70
2022/11/13 06:34:00;;;;;;;25.83;16.35;;;1.80;99.90;;;;;;2039905;29;20047;-69
2022/11/13 06:35:20;;;;;;;24.52;15.75;;;1.90;99.90;;;;;;2040100;29;20534;-71
2022/11/13 06:36:39;;;;;;;25.02;15.82;;;1.90;99.90;;;;;;2039615;29;20047;-71
2022/11/13 06:37:58;;;;;;;25.05;16.30;;;1.90;99.90;;;;;;2040191;29;20076;-70
2022/11/13 06:39:17;;;;;;;24.88;15.98;;;1.90;99.90;;;;;;2040246;29;20032;-69
2022/11/13 06:40:41;;;;;;;25.55;16.15;;;1.90;99.90;;;;;;2039838;29;20040;-71
2022/11/13 06:42:10;;;;;;;25.17;16.25;;;1.90;99.90;;;;;;2040130;29;20027;-71
2022/11/13 06:43:29;;;;;;;25.58;16.42;;;1.90;99.90;;;;;;2040313;29;20446;-70
2022/11/13 06:44:52;;;;;;;26.20;16.55;;;1.90;99.90;;;;;;2040118;29;20066;-69
2022/11/13 06:46:13;;;;;;;25.65;16.00;;;1.90;99.90;;;;;;2039776;29;20494;-69
2022/11/13 06:47:33;;;;;;;27.38;16.90;;;1.90;99.90;;;;;;2039716;29;20032;-73
2022/11/13 06:48:52;;;;;;;26.02;16.20;;;1.90;99.90;;;;;;2039624;29;20036;-70
2022/11/13 06:50:11;;;;;;;25.20;16.63;;;2.00;99.90;;;;;;2039979;29;20035;-69
2022/11/13 06:51:31;;;;;;;27.15;16.63;;;2.00;99.90;;;;;;2039861;29;20075;-69
2022/11/13 06:52:50;;;;;;;25.30;16.35;;;2.00;99.90;;;;;;2040021;29;20031;-68
2022/11/13 06:54:09;;;;;;;25.63;16.08;;;2.00;99.90;;;;;;2039789;29;20115;-71
2022/11/13 06:55:28;;;;;;;24.60;15.90;;;2.00;99.90;;;;;;2039845;29;20111;-70